createdAt,value
2017-11-15T00:01:19.994Z,17.80
2017-11-15T00:03:48.880Z,16.90
2017-11-15T00:06:18.485Z,17.30
2017-11-15T00:08:48.842Z,18.07
2017-11-15T00:11:17.758Z,16.33
2017-11-15T00:13:46.629Z,16.23
2017-11-15T00:16:15.483Z,15.00
2017-11-15T00:18:45.091Z,16.93
2017-11-15T00:21:13.935Z,17.20
2017-11-15T00:23:42.759Z,15.03
2017-11-15T00:26:11.649Z,15.40
2017-11-15T00:28:42.001Z,14.97
2017-11-15T00:31:10.831Z,15.90
2017-11-15T00:33:39.681Z,15.53
2017-11-15T00:36:08.543Z,15.53
2017-11-15T00:38:37.726Z,15.80
2017-11-15T00:41:06.625Z,16.17
2017-11-15T00:43:35.589Z,17.07
2017-11-15T00:46:04.415Z,16.67
2017-11-15T00:48:33.289Z,17.17
2017-11-15T00:51:02.132Z,17.20
2017-11-15T00:53:30.979Z,15.07
2017-11-15T00:55:59.835Z,15.33
2017-11-15T00:58:29.436Z,15.63
2017-11-15T01:00:58.760Z,15.87
2017-11-15T01:03:27.823Z,16.07
2017-11-15T01:05:56.656Z,15.50
2017-11-15T01:08:25.491Z,17.70
2017-11-15T01:10:55.137Z,15.10
2017-11-15T01:13:24.025Z,14.67
2017-11-15T01:15:52.882Z,16.77
2017-11-15T01:18:21.708Z,17.03
2017-11-15T01:20:52.308Z,16.93
2017-11-15T01:23:21.941Z,16.43
2017-11-15T01:25:50.781Z,16.53
2017-11-15T01:28:19.633Z,17.40
2017-11-15T01:30:48.479Z,17.60
2017-11-15T01:33:18.174Z,17.37
2017-11-15T01:35:47.011Z,18.70
2017-11-15T01:38:15.872Z,17.07
2017-11-15T01:40:44.723Z,16.70
2017-11-15T01:43:15.077Z,17.27
2017-11-15T01:45:44.684Z,17.33
2017-11-15T01:48:14.314Z,18.40
2017-11-15T01:50:43.150Z,17.50
2017-11-15T01:53:11.979Z,18.20
2017-11-15T01:55:40.837Z,17.70
2017-11-15T01:58:09.685Z,17.47
2017-11-15T02:00:50.306Z,17.93
2017-11-15T02:03:20.420Z,18.63
2017-11-15T02:05:50.041Z,18.27
2017-11-15T02:08:18.964Z,17.73
2017-11-15T02:10:47.812Z,18.50
2017-11-15T02:13:16.658Z,18.80
2017-11-15T02:15:45.508Z,17.33
2017-11-15T02:18:15.132Z,17.80
2017-11-15T02:20:43.984Z,16.47
2017-11-15T02:23:12.814Z,18.33
2017-11-15T02:25:41.672Z,18.27
2017-11-15T02:28:12.104Z,16.40
2017-11-15T02:30:41.704Z,16.23
2017-11-15T02:33:11.347Z,18.03
2017-11-15T02:35:40.204Z,17.80
2017-11-15T02:38:09.810Z,14.80
2017-11-15T02:40:39.435Z,15.67
2017-11-15T02:43:08.282Z,15.33
2017-11-15T02:45:37.131Z,15.40
2017-11-15T02:48:06.002Z,16.23
2017-11-15T02:50:35.840Z,16.10
2017-11-15T02:53:05.105Z,15.23
2017-11-15T02:55:33.957Z,14.77
2017-11-15T02:58:02.801Z,16.30
2017-11-15T03:00:31.689Z,16.30
2017-11-15T03:03:00.562Z,15.93
2017-11-15T03:05:30.158Z,15.27
2017-11-15T03:07:59.772Z,15.57
2017-11-15T03:10:28.684Z,14.60
2017-11-15T03:12:57.528Z,17.27
2017-11-15T03:15:26.362Z,15.00
2017-11-15T03:17:55.215Z,16.30
2017-11-15T03:20:24.824Z,17.37
2017-11-15T03:22:54.456Z,15.10
2017-11-15T03:25:23.298Z,18.53
2017-11-15T03:27:52.136Z,17.60
2017-11-15T03:30:21.778Z,18.53
2017-11-15T03:32:50.635Z,18.47
2017-11-15T03:35:19.455Z,19.97
2017-11-15T03:37:48.308Z,18.90
2017-11-15T03:40:17.169Z,20.63
2017-11-15T03:42:46.038Z,20.73
2017-11-15T03:45:14.853Z,19.63
2017-11-15T03:47:43.688Z,19.03
2017-11-15T03:50:13.296Z,18.73
2017-11-15T03:52:42.903Z,19.40
2017-11-15T03:55:12.516Z,19.13
2017-11-15T03:57:42.139Z,19.77
2017-11-15T04:00:11.004Z,20.13
2017-11-15T04:02:40.609Z,20.47
2017-11-15T04:05:10.243Z,20.37
2017-11-15T04:07:39.120Z,18.10
2017-11-15T04:10:07.935Z,19.77
2017-11-15T04:12:36.785Z,21.90
2017-11-15T04:15:06.416Z,20.60
2017-11-15T04:17:35.259Z,18.20
2017-11-15T04:20:04.115Z,20.40
2017-11-15T04:22:32.948Z,19.53
2017-11-15T04:25:01.815Z,21.03
2017-11-15T04:27:30.649Z,19.50
2017-11-15T04:30:00.267Z,21.57
2017-11-15T04:32:29.945Z,20.90
2017-11-15T04:34:58.776Z,19.70
2017-11-15T04:37:27.666Z,20.83
2017-11-15T04:40:01.776Z,21.47
2017-11-15T04:42:30.637Z,19.37
2017-11-15T04:44:59.468Z,20.97
2017-11-15T04:47:28.315Z,19.63
2017-11-15T04:49:57.911Z,19.13
2017-11-15T04:52:27.540Z,20.43
2017-11-15T04:54:56.379Z,21.60
2017-11-15T04:57:25.238Z,20.00
2017-11-15T04:59:54.084Z,18.80
2017-11-15T05:02:23.276Z,19.80
2017-11-15T05:04:52.901Z,17.60
2017-11-15T05:07:21.746Z,20.77
2017-11-15T05:09:50.693Z,19.40
2017-11-15T05:12:19.590Z,19.60
2017-11-15T05:14:49.196Z,19.27
2017-11-15T05:17:18.041Z,19.40
2017-11-15T05:19:46.883Z,19.03
2017-11-15T05:22:15.740Z,18.60
2017-11-15T05:24:45.340Z,18.17
2017-11-15T05:27:14.981Z,17.90
2017-11-15T05:29:44.071Z,19.13
2017-11-15T05:32:12.966Z,18.83
2017-11-15T05:34:41.836Z,19.30
2017-11-15T05:37:11.652Z,19.90
2017-11-15T05:39:40.937Z,19.60
2017-11-15T05:42:10.554Z,21.20
2017-11-15T05:44:40.144Z,18.47
2017-11-15T05:47:08.991Z,18.27
2017-11-15T05:49:37.838Z,17.63
2017-11-15T05:52:07.458Z,18.20
2017-11-15T05:54:36.305Z,18.30
2017-11-15T05:57:06.657Z,19.57
2017-11-15T05:59:36.285Z,18.90
2017-11-15T06:02:05.516Z,17.93
2017-11-15T06:04:34.371Z,17.70
2017-11-15T06:07:03.339Z,16.87
2017-11-15T06:09:32.191Z,16.90
2017-11-15T06:12:01.087Z,16.80
2017-11-15T06:14:30.679Z,16.30
2017-11-15T06:16:59.596Z,17.20
2017-11-15T06:19:28.489Z,16.20
2017-11-15T06:21:58.042Z,15.60
2017-11-15T06:24:27.673Z,15.37
2017-11-15T06:26:56.612Z,16.90
2017-11-15T06:29:26.332Z,16.60
2017-11-15T06:31:55.162Z,16.20
2017-11-15T06:34:23.924Z,16.97
2017-11-15T06:36:52.805Z,17.60
2017-11-15T06:39:21.608Z,16.50
2017-11-15T06:41:50.467Z,17.90
2017-11-15T06:44:20.066Z,18.77
2017-11-15T06:46:48.932Z,17.50
2017-11-15T06:49:18.568Z,16.83
2017-11-15T06:51:47.413Z,15.53
2017-11-15T06:54:16.270Z,16.70
2017-11-15T06:56:45.800Z,15.87
2017-11-15T06:59:14.671Z,22.73
2017-11-15T07:01:43.624Z,22.40
2017-11-15T07:04:12.490Z,20.20
2017-11-15T07:06:42.481Z,18.23
2017-11-15T07:09:11.295Z,17.30
2017-11-15T07:11:41.001Z,18.63
2017-11-15T07:14:10.610Z,17.30
2017-11-15T07:16:40.226Z,16.97
2017-11-15T07:19:09.864Z,17.00
2017-11-15T07:21:38.752Z,17.07
2017-11-15T07:24:08.139Z,16.13
2017-11-15T07:26:37.730Z,15.83
2017-11-15T07:29:07.361Z,16.40
2017-11-15T07:31:36.198Z,16.07
2017-11-15T07:34:05.036Z,18.17
2017-11-15T07:36:33.887Z,16.63
2017-11-15T07:39:02.728Z,17.93
2017-11-15T07:41:31.565Z,17.17
2017-11-15T07:44:00.408Z,16.23
2017-11-15T07:46:30.925Z,14.50
2017-11-15T07:49:00.538Z,13.27
2017-11-15T07:51:30.139Z,14.40
2017-11-15T07:53:59.748Z,14.70
2017-11-15T07:56:29.356Z,15.03
2017-11-15T07:58:58.969Z,13.80
2017-11-15T08:01:28.577Z,13.27
2017-11-15T08:03:57.448Z,14.37
2017-11-15T08:06:26.268Z,13.53
2017-11-15T08:08:55.180Z,11.53
2017-11-15T08:11:24.695Z,13.27
2017-11-15T08:13:53.527Z,12.00
2017-11-15T08:16:23.136Z,12.53
2017-11-15T08:18:52.770Z,11.43
2017-11-15T08:21:21.625Z,11.20
2017-11-15T08:23:51.236Z,10.90
2017-11-15T08:26:20.877Z,10.30
2017-11-15T08:28:49.767Z,11.03
2017-11-15T08:31:19.373Z,9.23
2017-11-15T08:33:48.212Z,10.77
2017-11-15T08:36:17.964Z,9.90
2017-11-15T08:38:46.796Z,8.67
2017-11-15T08:41:15.672Z,10.23
2017-11-15T08:43:44.856Z,10.20
2017-11-15T08:46:13.675Z,10.23
2017-11-15T08:48:42.520Z,9.70
2017-11-15T08:51:11.373Z,9.80
2017-11-15T08:53:40.235Z,9.70
2017-11-15T08:56:09.710Z,9.93
2017-11-15T08:58:38.573Z,10.93
2017-11-15T09:01:07.408Z,9.23
2017-11-15T09:03:37.043Z,9.70
2017-11-15T09:06:05.903Z,10.83
2017-11-15T09:08:35.561Z,9.90
2017-11-15T09:11:04.401Z,10.60
2017-11-15T09:13:33.396Z,10.53
2017-11-15T09:16:03.024Z,12.43
2017-11-15T09:18:31.874Z,11.20
2017-11-15T09:21:00.725Z,10.23
2017-11-15T09:23:29.575Z,12.00
2017-11-15T09:25:58.859Z,10.47
2017-11-15T09:28:30.301Z,10.20
2017-11-15T09:30:59.144Z,10.10
2017-11-15T09:33:28.011Z,11.07
2017-11-15T09:35:57.632Z,11.37
2017-11-15T09:38:26.489Z,12.63
2017-11-15T09:40:56.097Z,12.27
2017-11-15T09:43:25.036Z,13.63
2017-11-15T09:45:53.855Z,12.30
2017-11-15T09:48:22.729Z,11.00
2017-11-15T09:50:51.687Z,10.67
2017-11-15T09:53:20.536Z,10.47
2017-11-15T09:55:49.388Z,10.97
2017-11-15T09:58:18.255Z,11.30
2017-11-15T10:00:47.907Z,14.13
2017-11-15T10:03:16.749Z,14.30
2017-11-15T10:05:46.376Z,13.40
2017-11-15T10:08:16.700Z,11.07
2017-11-15T10:10:46.330Z,12.20
2017-11-15T10:13:15.184Z,13.82
2017-11-15T10:15:44.820Z,14.30
2017-11-15T10:18:14.430Z,11.70
2017-11-15T10:20:43.273Z,11.20
2017-11-15T10:23:12.119Z,11.00
2017-11-15T10:25:40.981Z,11.70
2017-11-15T10:28:10.606Z,10.70
2017-11-15T10:30:39.471Z,10.43
2017-11-15T10:33:09.090Z,12.13
2017-11-15T10:35:37.953Z,11.17
2017-11-15T10:38:06.783Z,8.97
2017-11-15T10:40:35.625Z,10.75
2017-11-15T10:43:04.464Z,10.80
2017-11-15T10:45:33.326Z,10.60
2017-11-15T10:48:02.192Z,10.17
2017-11-15T10:50:31.796Z,11.20
2017-11-15T10:53:00.664Z,11.30
2017-11-15T10:55:30.462Z,10.90
2017-11-15T10:58:00.100Z,11.10
2017-11-15T11:00:34.624Z,10.37
2017-11-15T11:03:03.464Z,9.90
2017-11-15T11:05:33.400Z,10.20
2017-11-15T11:08:03.044Z,9.30
2017-11-15T11:10:31.868Z,11.20
2017-11-15T11:13:00.721Z,10.57
2017-11-15T11:15:30.482Z,10.87
2017-11-15T11:17:59.321Z,10.33
2017-11-15T11:20:28.189Z,9.70
2017-11-15T11:22:57.788Z,7.90
2017-11-15T11:25:27.394Z,9.50
2017-11-15T11:27:57.085Z,8.30
2017-11-15T11:30:25.940Z,9.07
2017-11-15T11:32:54.768Z,8.57
2017-11-15T11:35:24.617Z,8.10
2017-11-15T11:37:55.225Z,8.50
2017-11-15T11:40:24.835Z,7.60
2017-11-15T11:42:54.440Z,7.30
2017-11-15T11:45:23.806Z,7.37
2017-11-15T11:47:52.624Z,7.67
2017-11-15T11:50:21.457Z,6.10
2017-11-15T11:52:50.418Z,6.93
2017-11-15T11:55:19.241Z,6.93
2017-11-15T11:57:48.100Z,7.67
2017-11-15T12:00:16.953Z,6.90
2017-11-15T12:02:46.565Z,7.10
2017-11-15T12:05:15.410Z,7.50
2017-11-15T12:07:44.227Z,7.33
2017-11-15T12:10:13.848Z,7.60
2017-11-15T12:12:43.443Z,7.50
2017-11-15T12:15:13.051Z,7.20
2017-11-15T12:17:42.664Z,7.63
2017-11-15T12:20:12.280Z,8.53
2017-11-15T12:22:41.123Z,7.90
2017-11-15T12:25:09.957Z,8.40
2017-11-15T12:27:38.786Z,7.27
2017-11-15T12:30:07.650Z,8.00
2017-11-15T12:32:36.507Z,7.13
2017-11-15T12:35:06.142Z,6.70
2017-11-15T12:37:34.995Z,6.97
2017-11-15T12:40:03.838Z,6.00
2017-11-15T12:42:32.679Z,6.70
2017-11-15T12:45:01.517Z,5.43
2017-11-15T12:47:30.474Z,6.13
2017-11-15T12:49:59.308Z,5.90
2017-11-15T12:52:28.148Z,5.37
2017-11-15T12:54:57.076Z,5.10
2017-11-15T12:57:25.887Z,5.90
2017-11-15T12:59:55.547Z,6.80
2017-11-15T13:02:24.382Z,5.90
2017-11-15T13:04:53.990Z,6.00
2017-11-15T13:07:23.433Z,5.70
2017-11-15T13:09:53.191Z,6.30
2017-11-15T13:12:22.070Z,5.70
2017-11-15T13:14:50.905Z,6.10
2017-11-15T13:17:19.749Z,5.53
2017-11-15T13:19:48.585Z,6.87
2017-11-15T13:22:17.421Z,6.77
2017-11-15T13:24:46.247Z,6.43
2017-11-15T13:27:15.850Z,6.07
2017-11-15T13:29:44.847Z,6.13
2017-11-15T13:32:14.455Z,6.13
2017-11-15T13:34:44.071Z,7.13
2017-11-15T13:37:12.915Z,7.43
2017-11-15T13:39:43.286Z,7.83
2017-11-15T13:42:12.109Z,7.33
2017-11-15T13:44:40.974Z,7.17
2017-11-15T13:47:10.261Z,6.63
2017-11-15T13:49:39.101Z,6.60
2017-11-15T13:52:07.937Z,6.13
2017-11-15T13:54:37.000Z,6.50
2017-11-15T13:57:06.624Z,6.40
2017-11-15T13:59:36.220Z,6.23
2017-11-15T14:02:05.849Z,5.50
2017-11-15T14:04:34.680Z,6.80
2017-11-15T14:07:03.519Z,6.90
2017-11-15T14:09:32.776Z,6.60
2017-11-15T14:12:01.631Z,7.00
2017-11-15T14:14:30.496Z,6.40
2017-11-15T14:16:59.343Z,6.67
2017-11-15T14:19:28.191Z,6.73
2017-11-15T14:21:57.032Z,6.50
2017-11-15T14:24:26.658Z,5.80
2017-11-15T14:26:56.277Z,6.23
2017-11-15T14:29:25.277Z,6.40
2017-11-15T14:31:54.132Z,7.23
2017-11-15T14:34:22.957Z,6.60
2017-11-15T14:36:51.857Z,6.40
2017-11-15T14:39:21.444Z,6.43
2017-11-15T14:41:50.291Z,6.27
2017-11-15T14:44:19.920Z,6.40
2017-11-15T14:46:50.007Z,6.13
2017-11-15T14:49:18.847Z,5.90
2017-11-15T14:51:47.668Z,6.43
2017-11-15T14:54:17.283Z,6.77
2017-11-15T14:56:46.910Z,6.70
2017-11-15T14:59:15.756Z,7.00
2017-11-15T15:01:45.513Z,6.50
2017-11-15T15:04:14.352Z,7.60
2017-11-15T15:06:43.241Z,7.23
2017-11-15T15:09:13.340Z,6.63
2017-11-15T15:11:42.187Z,7.70
2017-11-15T15:14:11.774Z,7.00
2017-11-15T15:16:41.413Z,7.37
2017-11-15T15:19:10.265Z,7.47
2017-11-15T15:21:39.113Z,7.70
2017-11-15T15:24:07.985Z,7.50
2017-11-15T15:26:37.225Z,7.27
2017-11-15T15:29:06.067Z,6.10
2017-11-15T15:31:35.287Z,5.90
2017-11-15T15:34:04.111Z,7.10
2017-11-15T15:36:32.946Z,6.60
2017-11-15T15:39:01.784Z,6.80
2017-11-15T15:41:30.624Z,8.10
2017-11-15T15:43:59.473Z,6.07
2017-11-15T15:46:28.296Z,8.00
2017-11-15T15:48:57.155Z,7.13
2017-11-15T15:51:26.733Z,6.27
2017-11-15T15:53:55.585Z,7.57
2017-11-15T15:56:24.450Z,7.90
2017-11-15T15:58:54.071Z,7.10
2017-11-15T16:01:22.981Z,7.90
2017-11-15T16:03:51.899Z,6.80
2017-11-15T16:06:20.739Z,7.77
2017-11-15T16:08:49.601Z,6.00
2017-11-15T16:11:18.428Z,6.80
2017-11-15T16:13:47.297Z,6.20
2017-11-15T16:16:16.892Z,5.47
2017-11-15T16:18:46.489Z,6.10
2017-11-15T16:21:16.100Z,5.87
2017-11-15T16:23:45.702Z,6.43
2017-11-15T16:26:14.678Z,6.50
2017-11-15T16:28:43.503Z,6.60
2017-11-15T16:31:12.356Z,7.50
2017-11-15T16:33:42.018Z,9.07
2017-11-15T16:36:10.943Z,8.67
2017-11-15T16:38:39.788Z,6.90
2017-11-15T16:41:08.636Z,6.60
2017-11-15T16:43:37.496Z,6.50
2017-11-15T16:46:06.348Z,7.97
2017-11-15T16:48:35.212Z,7.20
2017-11-15T16:51:04.840Z,7.70
2017-11-15T16:53:34.288Z,7.03
2017-11-15T16:56:03.152Z,6.60
2017-11-15T16:58:32.024Z,6.80
2017-11-15T17:01:01.936Z,7.80
2017-11-15T17:03:30.829Z,6.90
2017-11-15T17:05:59.666Z,6.90
2017-11-15T17:08:28.538Z,6.77
2017-11-15T17:10:57.387Z,14.57
2017-11-15T17:13:27.030Z,10.20
2017-11-15T17:15:56.735Z,10.80
2017-11-15T17:18:26.871Z,10.20
2017-11-15T17:20:55.727Z,10.67
2017-11-15T17:23:24.603Z,11.67
2017-11-15T17:25:54.239Z,10.10
2017-11-15T17:28:23.090Z,13.17
2017-11-15T17:30:52.783Z,11.47
2017-11-15T17:33:21.607Z,16.83
2017-11-15T17:35:50.552Z,17.47
2017-11-15T17:38:20.188Z,17.17
2017-11-15T17:40:49.839Z,15.97
2017-11-15T17:43:18.767Z,17.23
2017-11-15T17:45:47.578Z,19.77
2017-11-15T17:48:17.735Z,24.00
2017-11-15T17:50:47.394Z,21.70
2017-11-15T17:53:16.267Z,20.70
2017-11-15T17:55:45.134Z,18.97
2017-11-15T17:58:14.788Z,21.27
2017-11-15T18:00:43.840Z,18.90
2017-11-15T18:03:13.370Z,23.60
2017-11-15T18:05:42.221Z,16.00
2017-11-15T18:08:11.630Z,15.50
2017-11-15T18:10:40.444Z,16.30
2017-11-15T18:13:09.350Z,15.10
2017-11-15T18:15:38.210Z,16.17
2017-11-15T18:18:09.151Z,15.27
2017-11-15T18:20:38.029Z,15.20
2017-11-15T18:23:07.714Z,15.70
2017-11-15T18:25:36.570Z,16.67
2017-11-15T18:28:05.490Z,23.30
2017-11-15T18:30:34.353Z,24.07
2017-11-15T18:33:03.191Z,23.20
2017-11-15T18:35:32.825Z,23.13
2017-11-15T18:38:01.700Z,18.17
2017-11-15T18:40:31.321Z,19.53
2017-11-15T18:43:00.207Z,20.00
2017-11-15T18:45:30.342Z,21.50
2017-11-15T18:47:59.240Z,17.20
2017-11-15T18:50:28.886Z,15.60
2017-11-15T18:52:57.737Z,18.80
2017-11-15T18:55:27.128Z,21.20
2017-11-15T18:57:57.169Z,18.60
2017-11-15T19:00:26.049Z,19.33
2017-11-15T19:02:55.683Z,21.17
2017-11-15T19:05:24.574Z,34.57
2017-11-15T19:07:53.448Z,23.30
2017-11-15T19:10:22.427Z,19.40
2017-11-15T19:12:51.293Z,19.97
2017-11-15T19:15:20.194Z,21.03
2017-11-15T19:17:49.327Z,19.87
2017-11-15T19:20:18.197Z,21.30
2017-11-15T19:22:47.851Z,22.07
2017-11-15T19:25:16.723Z,21.60
2017-11-15T19:27:45.571Z,20.00
2017-11-15T19:30:14.434Z,16.80
2017-11-15T19:32:43.313Z,14.20
2017-11-15T19:35:12.161Z,13.20
2017-11-15T19:37:41.120Z,15.43
2017-11-15T19:40:10.816Z,18.63
2017-11-15T19:42:41.197Z,18.37
2017-11-15T19:45:10.146Z,18.00
2017-11-15T19:47:39.036Z,17.63
2017-11-15T19:50:09.088Z,17.97
2017-11-15T19:52:39.446Z,18.43
2017-11-15T19:55:08.333Z,17.03
2017-11-15T19:57:37.260Z,20.13
2017-11-15T20:00:06.153Z,20.77
2017-11-15T20:02:35.060Z,19.67
2017-11-15T20:05:04.704Z,22.73
2017-11-15T20:07:33.646Z,24.87
2017-11-15T20:10:03.470Z,24.13
2017-11-15T20:12:32.397Z,24.73
2017-11-15T20:15:01.346Z,16.13
2017-11-15T20:17:30.282Z,21.60
2017-11-15T20:19:59.456Z,18.63
2017-11-15T20:22:29.189Z,29.70
2017-11-15T20:24:58.084Z,33.97
2017-11-15T20:27:27.342Z,49.23
2017-11-15T20:29:56.628Z,29.10
2017-11-15T20:32:25.903Z,33.63
2017-11-15T20:34:54.866Z,43.80
2017-11-15T20:37:23.728Z,38.20
2017-11-15T20:39:54.033Z,47.37
2017-11-15T20:42:22.987Z,34.83
2017-11-15T20:44:51.832Z,31.30
2017-11-15T20:47:21.482Z,20.23
2017-11-15T20:49:50.333Z,18.23
2017-11-15T20:52:20.314Z,18.10
2017-11-15T20:54:49.188Z,17.90
2017-11-15T20:57:18.318Z,23.90
2017-11-15T20:59:47.865Z,30.13
2017-11-15T21:02:17.512Z,29.07
2017-11-15T21:04:46.994Z,26.40
2017-11-15T21:07:15.926Z,27.77
2017-11-15T21:09:45.855Z,26.73
2017-11-15T21:22:00.545Z,19.67
2017-11-15T21:24:29.417Z,16.73
2017-11-15T21:26:59.384Z,16.77
2017-11-15T21:29:29.026Z,18.07
2017-11-15T21:31:57.853Z,17.97
2017-11-15T21:34:26.713Z,19.23
2017-11-15T21:36:56.249Z,18.73
2017-11-15T21:39:25.133Z,17.73
2017-11-15T21:41:54.053Z,18.47
2017-11-15T21:44:22.980Z,18.50
2017-11-15T21:46:51.820Z,17.90
2017-11-15T21:49:23.130Z,17.70
2017-11-15T21:51:52.026Z,18.50
2017-11-15T21:54:20.864Z,18.23
2017-11-15T21:56:49.744Z,19.80
2017-11-15T21:59:18.597Z,19.17
2017-11-15T22:01:47.865Z,18.73
2017-11-15T22:04:17.501Z,19.27
2017-11-15T22:06:46.349Z,18.43
2017-11-15T22:09:15.999Z,20.40
2017-11-15T22:11:44.891Z,19.80
2017-11-15T22:14:13.736Z,19.40
2017-11-15T22:16:42.637Z,19.43
2017-11-15T22:19:12.279Z,18.40
2017-11-15T22:21:41.973Z,19.97
2017-11-15T22:24:11.588Z,21.27
2017-11-15T22:26:40.436Z,20.90
2017-11-15T22:29:09.290Z,19.93
2017-11-15T22:31:38.147Z,21.03
2017-11-15T22:34:07.769Z,21.63
2017-11-15T22:36:36.608Z,22.07
2017-11-15T22:39:05.477Z,23.37
2017-11-15T22:41:34.339Z,22.67
2017-11-15T22:44:03.192Z,22.10
2017-11-15T22:46:32.115Z,23.47
2017-11-15T22:49:00.971Z,21.37
2017-11-15T22:51:30.917Z,23.17
2017-11-15T22:54:00.523Z,23.40
2017-11-15T22:56:30.156Z,22.67
2017-11-15T22:58:59.007Z,21.13
2017-11-15T23:01:28.341Z,22.40
2017-11-15T23:03:57.193Z,19.77
2017-11-15T23:06:26.376Z,18.97
2017-11-15T23:08:55.224Z,20.17
2017-11-15T23:11:24.175Z,18.80
2017-11-15T23:13:53.793Z,21.07
2017-11-15T23:16:24.005Z,20.90
2017-11-15T23:18:53.621Z,22.17
2017-11-15T23:21:22.540Z,22.23
2017-11-15T23:23:51.438Z,22.30
2017-11-15T23:26:20.337Z,21.07
2017-11-15T23:28:49.213Z,23.30
2017-11-15T23:31:18.068Z,19.43
2017-11-15T23:33:47.674Z,19.63
2017-11-15T23:36:17.309Z,17.93
2017-11-15T23:38:46.173Z,18.20
2017-11-15T23:41:15.780Z,17.93
2017-11-15T23:43:45.415Z,16.40
2017-11-15T23:46:14.281Z,17.37
2017-11-15T23:48:43.925Z,16.33
2017-11-15T23:51:12.757Z,17.93
2017-11-15T23:53:42.370Z,17.77
2017-11-15T23:56:11.988Z,17.40
2017-11-15T23:58:40.853Z,18.40
